sensor_id;sensor_type;location;lat;lon;timestamp;temperature;humidity
5466;DHT22;2755;50.728;7.108;2023-03-20T00:00:35;9.00;99.90
5466;DHT22;2755;50.728;7.108;2023-03-20T00:03:02;9.10;99.90
5466;DHT22;2755;50.728;7.108;2023-03-20T00:05:29;9.20;99.90
5466;DHT22;2755;50.728;7.108;2023-03-20T00:07:55;9.30;99.90
5466;DHT22;2755;50.728;7.108;2023-03-20T00:10:26;9.10;99.90
5466;DHT22;2755;50.728;7.108;2023-03-20T00:12:52;9.40;99.90
5466;DHT22;2755;50.728;7.108;2023-03-20T00:15:29;9.00;99.90
5466;DHT22;2755;50.728;7.108;2023-03-20T00:20:22;8.70;99.90
5466;DHT22;2755;50.728;7.108;2023-03-20T00:22:49;9.10;99.90
5466;DHT22;2755;50.728;7.108;2023-03-20T00:25:17;9.20;99.90
5466;DHT22;2755;50.728;7.108;2023-03-20T00:27:43;8.70;99.90
5466;DHT22;2755;50.728;7.108;2023-03-20T00:30:25;9.10;99.90
5466;DHT22;2755;50.728;7.108;2023-03-20T00:32:53;9.10;99.90
5466;DHT22;2755;50.728;7.108;2023-03-20T00:35:24;9.20;99.90
5466;DHT22;2755;50.728;7.108;2023-03-20T00:37:51;9.00;99.90
5466;DHT22;2755;50.728;7.108;2023-03-20T00:40:18;8.80;99.90
5466;DHT22;2755;50.728;7.108;2023-03-20T00:42:46;9.20;99.90
5466;DHT22;2755;50.728;7.108;2023-03-20T00:45:16;9.30;99.90
5466;DHT22;2755;50.728;7.108;2023-03-20T00:47:42;9.20;99.90
5466;DHT22;2755;50.728;7.108;2023-03-20T00:50:22;8.90;99.90
5466;DHT22;2755;50.728;7.108;2023-03-20T00:52:48;8.80;99.90
5466;DHT22;2755;50.728;7.108;2023-03-20T00:57:47;9.60;99.90
5466;DHT22;2755;50.728;7.108;2023-03-20T01:02:54;9.30;99.90
5466;DHT22;2755;50.728;7.108;2023-03-20T01:05:20;9.00;99.90
5466;DHT22;2755;50.728;7.108;2023-03-20T01:07:46;9.30;99.90
5466;DHT22;2755;50.728;7.108;2023-03-20T01:10:12;8.40;99.90
5466;DHT22;2755;50.728;7.108;2023-03-20T01:12:39;9.10;99.90
5466;DHT22;2755;50.728;7.108;2023-03-20T01:15:22;8.70;99.90
5466;DHT22;2755;50.728;7.108;2023-03-20T01:17:48;8.90;99.90
5466;DHT22;2755;50.728;7.108;2023-03-20T01:20:25;8.90;99.90
5466;DHT22;2755;50.728;7.108;2023-03-20T01:22:51;9.30;99.90
5466;DHT22;2755;50.728;7.108;2023-03-20T01:25:19;8.50;99.90
5466;DHT22;2755;50.728;7.108;2023-03-20T01:27:51;8.80;99.90
5466;DHT22;2755;50.728;7.108;2023-03-20T01:30:23;9.00;99.90
5466;DHT22;2755;50.728;7.108;2023-03-20T01:32:50;9.40;99.90
5466;DHT22;2755;50.728;7.108;2023-03-20T01:35:19;9.00;99.90
5466;DHT22;2755;50.728;7.108;2023-03-20T01:37:45;9.10;99.90
5466;DHT22;2755;50.728;7.108;2023-03-20T01:42:47;8.90;99.90
5466;DHT22;2755;50.728;7.108;2023-03-20T01:45:18;9.30;99.90
5466;DHT22;2755;50.728;7.108;2023-03-20T01:47:45;8.60;99.90
5466;DHT22;2755;50.728;7.108;2023-03-20T01:50:19;9.20;99.90
5466;DHT22;2755;50.728;7.108;2023-03-20T01:52:49;9.00;99.90
5466;DHT22;2755;50.728;7.108;2023-03-20T01:55:16;8.80;99.90
5466;DHT22;2755;50.728;7.108;2023-03-20T01:57:42;9.00;99.90
5466;DHT22;2755;50.728;7.108;2023-03-20T02:00:09;9.20;99.90
5466;DHT22;2755;50.728;7.108;2023-03-20T02:02:36;8.60;99.90
5466;DHT22;2755;50.728;7.108;2023-03-20T02:05:07;8.20;99.90
5466;DHT22;2755;50.728;7.108;2023-03-20T02:07:34;9.10;99.90
5466;DHT22;2755;50.728;7.108;2023-03-20T02:10:02;9.20;99.90
5466;DHT22;2755;50.728;7.108;2023-03-20T02:12:28;8.50;99.90
5466;DHT22;2755;50.728;7.108;2023-03-20T02:14:54;8.80;99.90
5466;DHT22;2755;50.728;7.108;2023-03-20T02:17:20;8.90;99.90
5466;DHT22;2755;50.728;7.108;2023-03-20T02:22:40;8.70;99.90
5466;DHT22;2755;50.728;7.108;2023-03-20T02:25:57;8.90;99.90
5466;DHT22;2755;50.728;7.108;2023-03-20T02:28:25;8.50;99.90
5466;DHT22;2755;50.728;7.108;2023-03-20T02:37:28;9.30;99.90
5466;DHT22;2755;50.728;7.108;2023-03-20T02:40:16;8.30;99.90
5466;DHT22;2755;50.728;7.108;2023-03-20T02:46:12;8.80;99.90
5466;DHT22;2755;50.728;7.108;2023-03-20T02:49:00;8.80;99.90
5466;DHT22;2755;50.728;7.108;2023-03-20T02:57:00;8.90;99.90
5466;DHT22;2755;50.728;7.108;2023-03-20T03:02:08;8.60;99.90
5466;DHT22;2755;50.728;7.108;2023-03-20T03:04:40;8.80;99.90
5466;DHT22;2755;50.728;7.108;2023-03-20T03:07:08;8.40;99.90
5466;DHT22;2755;50.728;7.108;2023-03-20T03:09:42;8.40;99.90
5466;DHT22;2755;50.728;7.108;2023-03-20T03:12:26;8.90;99.90
5466;DHT22;2755;50.728;7.108;2023-03-20T03:14:55;8.20;99.90
5466;DHT22;2755;50.728;7.108;2023-03-20T03:17:25;8.40;99.90
5466;DHT22;2755;50.728;7.108;2023-03-20T03:19:56;8.10;99.90
5466;DHT22;2755;50.728;7.108;2023-03-20T03:22:23;8.30;99.90
5466;DHT22;2755;50.728;7.108;2023-03-20T03:24:51;8.10;99.90
5466;DHT22;2755;50.728;7.108;2023-03-20T03:27:22;7.90;99.90
5466;DHT22;2755;50.728;7.108;2023-03-20T03:29:56;8.40;99.90
5466;DHT22;2755;50.728;7.108;2023-03-20T03:32:29;8.10;99.90
5466;DHT22;2755;50.728;7.108;2023-03-20T03:34:57;8.10;99.90
5466;DHT22;2755;50.728;7.108;2023-03-20T03:37:59;8.30;99.90
5466;DHT22;2755;50.728;7.108;2023-03-20T03:43:08;8.10;99.90
5466;DHT22;2755;50.728;7.108;2023-03-20T03:45:42;7.90;99.90
5466;DHT22;2755;50.728;7.108;2023-03-20T03:48:19;8.20;99.90
5466;DHT22;2755;50.728;7.108;2023-03-20T03:50:50;8.50;99.90
5466;DHT22;2755;50.728;7.108;2023-03-20T03:53:24;8.20;99.90
5466;DHT22;2755;50.728;7.108;2023-03-20T03:55:54;8.20;99.90
5466;DHT22;2755;50.728;7.108;2023-03-20T03:58:28;8.20;99.90
5466;DHT22;2755;50.728;7.108;2023-03-20T04:00:57;8.50;99.90
5466;DHT22;2755;50.728;7.108;2023-03-20T04:03:28;8.10;99.90
5466;DHT22;2755;50.728;7.108;2023-03-20T04:05:56;8.40;99.90
5466;DHT22;2755;50.728;7.108;2023-03-20T04:08:23;8.30;99.90
5466;DHT22;2755;50.728;7.108;2023-03-20T04:10:48;8.40;99.90
5466;DHT22;2755;50.728;7.108;2023-03-20T04:13:14;7.80;99.90
5466;DHT22;2755;50.728;7.108;2023-03-20T04:15:41;7.70;99.90
5466;DHT22;2755;50.728;7.108;2023-03-20T04:18:07;7.80;99.90
5466;DHT22;2755;50.728;7.108;2023-03-20T04:22:59;7.90;99.90
5466;DHT22;2755;50.728;7.108;2023-03-20T04:25:26;7.70;99.90
5466;DHT22;2755;50.728;7.108;2023-03-20T04:27:51;7.90;99.90
5466;DHT22;2755;50.728;7.108;2023-03-20T04:30:18;7.60;99.90
5466;DHT22;2755;50.728;7.108;2023-03-20T04:32:44;8.30;99.90
5466;DHT22;2755;50.728;7.108;2023-03-20T04:35:09;7.90;99.90
5466;DHT22;2755;50.728;7.108;2023-03-20T04:37:35;7.70;99.90
5466;DHT22;2755;50.728;7.108;2023-03-20T04:40:01;7.30;99.90
5466;DHT22;2755;50.728;7.108;2023-03-20T04:44:52;8.60;99.90
5466;DHT22;2755;50.728;7.108;2023-03-20T04:47:18;8.10;99.90
5466;DHT22;2755;50.728;7.108;2023-03-20T04:52:09;8.50;99.90
5466;DHT22;2755;50.728;7.108;2023-03-20T04:54:35;7.90;99.90
5466;DHT22;2755;50.728;7.108;2023-03-20T04:57:00;8.00;99.90
5466;DHT22;2755;50.728;7.108;2023-03-20T04:59:26;8.40;99.90
5466;DHT22;2755;50.728;7.108;2023-03-20T05:01:52;9.50;99.90
5466;DHT22;2755;50.728;7.108;2023-03-20T05:04:17;8.00;99.90
5466;DHT22;2755;50.728;7.108;2023-03-20T05:06:43;7.60;99.90
5466;DHT22;2755;50.728;7.108;2023-03-20T05:09:12;7.80;99.90
5466;DHT22;2755;50.728;7.108;2023-03-20T05:11:38;7.30;99.90
5466;DHT22;2755;50.728;7.108;2023-03-20T05:14:03;7.90;99.90
5466;DHT22;2755;50.728;7.108;2023-03-20T05:16:29;7.40;99.90
5466;DHT22;2755;50.728;7.108;2023-03-20T05:18:55;7.70;99.90
5466;DHT22;2755;50.728;7.108;2023-03-20T05:21:20;7.80;99.90
5466;DHT22;2755;50.728;7.108;2023-03-20T05:23:46;8.40;99.90
5466;DHT22;2755;50.728;7.108;2023-03-20T05:26:11;6.90;99.90
5466;DHT22;2755;50.728;7.108;2023-03-20T05:28:37;7.70;99.90
5466;DHT22;2755;50.728;7.108;2023-03-20T05:31:02;6.90;99.90
5466;DHT22;2755;50.728;7.108;2023-03-20T05:35:54;7.50;99.90
5466;DHT22;2755;50.728;7.108;2023-03-20T05:38:20;7.50;99.90
5466;DHT22;2755;50.728;7.108;2023-03-20T05:40:54;7.40;99.90
5466;DHT22;2755;50.728;7.108;2023-03-20T05:45:46;7.50;99.90
5466;DHT22;2755;50.728;7.108;2023-03-20T05:48:11;7.30;99.90
5466;DHT22;2755;50.728;7.108;2023-03-20T05:50:37;7.80;99.90
5466;DHT22;2755;50.728;7.108;2023-03-20T05:55:28;7.30;99.90
5466;DHT22;2755;50.728;7.108;2023-03-20T05:57:54;7.80;99.90
5466;DHT22;2755;50.728;7.108;2023-03-20T06:00:19;7.40;99.90
5466;DHT22;2755;50.728;7.108;2023-03-20T06:02:46;7.10;99.90
5466;DHT22;2755;50.728;7.108;2023-03-20T06:05:11;7.20;99.90
5466;DHT22;2755;50.728;7.108;2023-03-20T06:07:37;7.80;99.90
5466;DHT22;2755;50.728;7.108;2023-03-20T06:10:03;7.50;99.90
5466;DHT22;2755;50.728;7.108;2023-03-20T06:12:28;7.40;99.90
5466;DHT22;2755;50.728;7.108;2023-03-20T06:14:54;7.60;99.90
5466;DHT22;2755;50.728;7.108;2023-03-20T06:17:19;7.40;99.90
5466;DHT22;2755;50.728;7.108;2023-03-20T06:19:45;7.90;99.90
5466;DHT22;2755;50.728;7.108;2023-03-20T06:22:10;8.50;99.90
5466;DHT22;2755;50.728;7.108;2023-03-20T06:24:36;7.80;99.90
5466;DHT22;2755;50.728;7.108;2023-03-20T06:29:31;7.70;99.90
5466;DHT22;2755;50.728;7.108;2023-03-20T06:34:23;8.60;99.90
5466;DHT22;2755;50.728;7.108;2023-03-20T06:36:48;7.90;99.90
5466;DHT22;2755;50.728;7.108;2023-03-20T06:39:14;8.00;99.90
5466;DHT22;2755;50.728;7.108;2023-03-20T06:41:39;7.90;99.90
5466;DHT22;2755;50.728;7.108;2023-03-20T06:44:05;8.00;99.90
5466;DHT22;2755;50.728;7.108;2023-03-20T06:46:31;7.90;99.90
5466;DHT22;2755;50.728;7.108;2023-03-20T06:51:22;8.40;99.90
5466;DHT22;2755;50.728;7.108;2023-03-20T06:53:48;9.10;99.90
5466;DHT22;2755;50.728;7.108;2023-03-20T06:56:13;8.60;99.90
5466;DHT22;2755;50.728;7.108;2023-03-20T06:58:39;8.60;99.90
5466;DHT22;2755;50.728;7.108;2023-03-20T07:01:13;9.00;99.90
5466;DHT22;2755;50.728;7.108;2023-03-20T07:03:40;9.30;99.90
5466;DHT22;2755;50.728;7.108;2023-03-20T07:06:06;9.60;99.90
5466;DHT22;2755;50.728;7.108;2023-03-20T07:08:32;9.20;99.90
5466;DHT22;2755;50.728;7.108;2023-03-20T07:10:58;8.90;99.90
5466;DHT22;2755;50.728;7.108;2023-03-20T07:13:23;9.00;99.90
5466;DHT22;2755;50.728;7.108;2023-03-20T07:18:15;9.70;99.90
5466;DHT22;2755;50.728;7.108;2023-03-20T07:23:07;9.70;99.90
5466;DHT22;2755;50.728;7.108;2023-03-20T07:25:32;10.10;99.90
5466;DHT22;2755;50.728;7.108;2023-03-20T07:27:58;10.20;99.90
5466;DHT22;2755;50.728;7.108;2023-03-20T07:30:24;9.70;99.90
5466;DHT22;2755;50.728;7.108;2023-03-20T07:35:16;10.00;99.90
5466;DHT22;2755;50.728;7.108;2023-03-20T07:37:42;10.30;99.90
5466;DHT22;2755;50.728;7.108;2023-03-20T07:40:08;10.60;98.80
5466;DHT22;2755;50.728;7.108;2023-03-20T07:42:34;10.50;99.90
5466;DHT22;2755;50.728;7.108;2023-03-20T07:44:59;11.80;97.00
5466;DHT22;2755;50.728;7.108;2023-03-20T07:47:25;11.90;95.30
5466;DHT22;2755;50.728;7.108;2023-03-20T07:49:50;12.10;93.60
5466;DHT22;2755;50.728;7.108;2023-03-20T07:52:17;12.00;84.30
5466;DHT22;2755;50.728;7.108;2023-03-20T07:59:35;12.50;87.50
5466;DHT22;2755;50.728;7.108;2023-03-20T08:02:00;11.90;83.80
5466;DHT22;2755;50.728;7.108;2023-03-20T08:04:26;11.80;76.20
5466;DHT22;2755;50.728;7.108;2023-03-20T08:09:18;12.60;77.60
5466;DHT22;2755;50.728;7.108;2023-03-20T08:11:44;10.70;75.70
5466;DHT22;2755;50.728;7.108;2023-03-20T08:14:10;11.10;77.30
5466;DHT22;2755;50.728;7.108;2023-03-20T08:19:01;11.50;78.50
5466;DHT22;2755;50.728;7.108;2023-03-20T08:21:30;10.70;72.50
5466;DHT22;2755;50.728;7.108;2023-03-20T08:26:23;10.50;81.30
5466;DHT22;2755;50.728;7.108;2023-03-20T08:28:49;11.10;74.30
5466;DHT22;2755;50.728;7.108;2023-03-20T08:31:16;11.00;75.80
5466;DHT22;2755;50.728;7.108;2023-03-20T08:33:43;10.40;77.20
5466;DHT22;2755;50.728;7.108;2023-03-20T08:36:08;11.00;72.50
5466;DHT22;2755;50.728;7.108;2023-03-20T08:38:34;11.20;71.00
5466;DHT22;2755;50.728;7.108;2023-03-20T08:45:52;11.60;70.80
5466;DHT22;2755;50.728;7.108;2023-03-20T08:50:44;11.00;74.70
5466;DHT22;2755;50.728;7.108;2023-03-20T08:58:02;11.10;67.90
5466;DHT22;2755;50.728;7.108;2023-03-20T09:00:28;11.20;61.40
5466;DHT22;2755;50.728;7.108;2023-03-20T09:02:53;11.30;63.30
5466;DHT22;2755;50.728;7.108;2023-03-20T09:10:12;11.30;59.20
5466;DHT22;2755;50.728;7.108;2023-03-20T09:12:38;11.60;56.10
5466;DHT22;2755;50.728;7.108;2023-03-20T09:15:04;11.50;56.30
5466;DHT22;2755;50.728;7.108;2023-03-20T09:17:31;11.70;58.50
5466;DHT22;2755;50.728;7.108;2023-03-20T09:19:57;12.20;59.80
5466;DHT22;2755;50.728;7.108;2023-03-20T09:22:22;12.40;55.70
5466;DHT22;2755;50.728;7.108;2023-03-20T09:24:48;12.50;56.10
5466;DHT22;2755;50.728;7.108;2023-03-20T09:27:14;12.20;51.60
5466;DHT22;2755;50.728;7.108;2023-03-20T09:29:41;12.40;46.50
5466;DHT22;2755;50.728;7.108;2023-03-20T09:32:08;12.60;47.80
5466;DHT22;2755;50.728;7.108;2023-03-20T09:34:34;12.30;47.60
5466;DHT22;2755;50.728;7.108;2023-03-20T09:37:00;12.70;46.00
5466;DHT22;2755;50.728;7.108;2023-03-20T09:39:27;12.30;42.70
5466;DHT22;2755;50.728;7.108;2023-03-20T09:41:53;12.40;41.90
5466;DHT22;2755;50.728;7.108;2023-03-20T09:44:40;12.70;40.80
5466;DHT22;2755;50.728;7.108;2023-03-20T09:47:22;12.80;39.30
5466;DHT22;2755;50.728;7.108;2023-03-20T09:52:47;12.20;36.70
5466;DHT22;2755;50.728;7.108;2023-03-20T09:55:19;12.60;37.80
5466;DHT22;2755;50.728;7.108;2023-03-20T09:57:49;12.80;32.10
5466;DHT22;2755;50.728;7.108;2023-03-20T10:00:22;12.60;33.90
5466;DHT22;2755;50.728;7.108;2023-03-20T10:02:57;13.00;35.80
5466;DHT22;2755;50.728;7.108;2023-03-20T10:05:26;12.90;31.40
5466;DHT22;2755;50.728;7.108;2023-03-20T10:08:01;12.70;36.00
5466;DHT22;2755;50.728;7.108;2023-03-20T10:13:42;12.90;28.80
5466;DHT22;2755;50.728;7.108;2023-03-20T10:19:29;12.90;30.80
5466;DHT22;2755;50.728;7.108;2023-03-20T10:24:35;12.80;27.70
5466;DHT22;2755;50.728;7.108;2023-03-20T10:27:11;12.90;29.00
5466;DHT22;2755;50.728;7.108;2023-03-20T10:30:02;12.90;30.90
5466;DHT22;2755;50.728;7.108;2023-03-20T10:35:33;13.20;32.00
5466;DHT22;2755;50.728;7.108;2023-03-20T10:38:23;13.20;29.40
5466;DHT22;2755;50.728;7.108;2023-03-20T10:40:52;13.10;27.00
5466;DHT22;2755;50.728;7.108;2023-03-20T10:43:25;13.40;23.60
5466;DHT22;2755;50.728;7.108;2023-03-20T10:46:12;13.30;26.30
5466;DHT22;2755;50.728;7.108;2023-03-20T10:48:48;13.30;23.80
5466;DHT22;2755;50.728;7.108;2023-03-20T10:51:21;13.50;26.80
5466;DHT22;2755;50.728;7.108;2023-03-20T10:53:51;13.80;26.80
5466;DHT22;2755;50.728;7.108;2023-03-20T10:56:54;13.60;25.80
5466;DHT22;2755;50.728;7.108;2023-03-20T10:59:42;13.70;26.20
5466;DHT22;2755;50.728;7.108;2023-03-20T11:02:13;13.40;24.60
5466;DHT22;2755;50.728;7.108;2023-03-20T11:04:39;13.50;24.10
5466;DHT22;2755;50.728;7.108;2023-03-20T11:09:36;13.90;26.60
5466;DHT22;2755;50.728;7.108;2023-03-20T11:12:03;13.20;25.40
5466;DHT22;2755;50.728;7.108;2023-03-20T11:14:37;13.00;25.80
5466;DHT22;2755;50.728;7.108;2023-03-20T11:17:04;13.40;28.20
5466;DHT22;2755;50.728;7.108;2023-03-20T11:19:36;12.80;24.70
5466;DHT22;2755;50.728;7.108;2023-03-20T11:24:46;12.70;26.20
5466;DHT22;2755;50.728;7.108;2023-03-20T11:27:18;12.60;25.80
5466;DHT22;2755;50.728;7.108;2023-03-20T11:29:48;12.70;26.20
5466;DHT22;2755;50.728;7.108;2023-03-20T11:37:32;12.60;20.40
5466;DHT22;2755;50.728;7.108;2023-03-20T11:40:20;13.00;20.70
5466;DHT22;2755;50.728;7.108;2023-03-20T11:43:08;12.50;22.50
5466;DHT22;2755;50.728;7.108;2023-03-20T11:45:36;13.20;23.50
5466;DHT22;2755;50.728;7.108;2023-03-20T11:48:03;13.40;21.50
5466;DHT22;2755;50.728;7.108;2023-03-20T11:50:35;12.40;20.40
5466;DHT22;2755;50.728;7.108;2023-03-20T11:53:02;12.50;23.50
5466;DHT22;2755;50.728;7.108;2023-03-20T11:55:31;12.30;21.30
5466;DHT22;2755;50.728;7.108;2023-03-20T11:57:59;12.60;25.10
5466;DHT22;2755;50.728;7.108;2023-03-20T12:00:29;12.10;22.80
5466;DHT22;2755;50.728;7.108;2023-03-20T12:08:04;11.90;28.30
5466;DHT22;2755;50.728;7.108;2023-03-20T12:10:35;12.00;25.60
5466;DHT22;2755;50.728;7.108;2023-03-20T12:13:14;12.30;19.20
5466;DHT22;2755;50.728;7.108;2023-03-20T12:15:46;12.20;19.60
5466;DHT22;2755;50.728;7.108;2023-03-20T12:18:46;12.40;17.90
5466;DHT22;2755;50.728;7.108;2023-03-20T12:21:22;12.50;20.10
5466;DHT22;2755;50.728;7.108;2023-03-20T12:23:57;12.60;22.30
5466;DHT22;2755;50.728;7.108;2023-03-20T12:26:33;12.60;22.60
5466;DHT22;2755;50.728;7.108;2023-03-20T12:29:25;13.00;21.10
5466;DHT22;2755;50.728;7.108;2023-03-20T12:31:57;12.60;20.10
5466;DHT22;2755;50.728;7.108;2023-03-20T12:34:37;14.80;21.40
5466;DHT22;2755;50.728;7.108;2023-03-20T12:39:42;12.80;16.60
5466;DHT22;2755;50.728;7.108;2023-03-20T12:42:17;13.10;16.90
5466;DHT22;2755;50.728;7.108;2023-03-20T12:50:39;13.30;16.80
5466;DHT22;2755;50.728;7.108;2023-03-20T12:56:10;13.30;16.70
5466;DHT22;2755;50.728;7.108;2023-03-20T12:59:04;13.10;20.90
5466;DHT22;2755;50.728;7.108;2023-03-20T13:02:38;12.90;22.30
5466;DHT22;2755;50.728;7.108;2023-03-20T13:04:57;11.70;24.70
5466;DHT22;2755;50.728;7.108;2023-03-20T13:07:42;12.50;26.00
5466;DHT22;2755;50.728;7.108;2023-03-20T13:10:20;12.40;27.60
5466;DHT22;2755;50.728;7.108;2023-03-20T13:32:58;13.40;21.60
5466;DHT22;2755;50.728;7.108;2023-03-20T13:35:39;13.30;20.80
5466;DHT22;2755;50.728;7.108;2023-03-20T13:38:16;13.50;22.10
5466;DHT22;2755;50.728;7.108;2023-03-20T13:40:45;13.50;21.20
5466;DHT22;2755;50.728;7.108;2023-03-20T13:48:32;13.80;24.10
5466;DHT22;2755;50.728;7.108;2023-03-20T13:57:09;13.60;22.50
5466;DHT22;2755;50.728;7.108;2023-03-20T14:05:40;13.50;19.00
5466;DHT22;2755;50.728;7.108;2023-03-20T14:08:36;13.50;19.90
5466;DHT22;2755;50.728;7.108;2023-03-20T14:13:50;13.50;19.10
5466;DHT22;2755;50.728;7.108;2023-03-20T14:16:19;13.70;19.00
5466;DHT22;2755;50.728;7.108;2023-03-20T14:18:50;14.20;19.10
5466;DHT22;2755;50.728;7.108;2023-03-20T14:24:02;14.00;19.40
5466;DHT22;2755;50.728;7.108;2023-03-20T14:26:36;14.00;19.90
5466;DHT22;2755;50.728;7.108;2023-03-20T14:31:35;14.10;18.00
5466;DHT22;2755;50.728;7.108;2023-03-20T14:37:02;13.90;17.60
5466;DHT22;2755;50.728;7.108;2023-03-20T14:42:25;13.60;15.80
5466;DHT22;2755;50.728;7.108;2023-03-20T14:47:56;13.50;21.50
5466;DHT22;2755;50.728;7.108;2023-03-20T15:03:50;13.30;19.10
5466;DHT22;2755;50.728;7.108;2023-03-20T15:06:19;13.40;19.80
5466;DHT22;2755;50.728;7.108;2023-03-20T15:09:14;13.30;19.40
5466;DHT22;2755;50.728;7.108;2023-03-20T15:11:40;13.10;22.90
5466;DHT22;2755;50.728;7.108;2023-03-20T15:14:07;13.20;22.10
5466;DHT22;2755;50.728;7.108;2023-03-20T15:16:35;12.90;19.90
5466;DHT22;2755;50.728;7.108;2023-03-20T15:19:08;12.50;22.80
5466;DHT22;2755;50.728;7.108;2023-03-20T15:21:40;12.80;22.90
5466;DHT22;2755;50.728;7.108;2023-03-20T15:24:06;13.00;24.10
5466;DHT22;2755;50.728;7.108;2023-03-20T15:26:34;12.80;23.20
5466;DHT22;2755;50.728;7.108;2023-03-20T15:29:04;12.80;23.00
5466;DHT22;2755;50.728;7.108;2023-03-20T15:31:33;13.40;24.10
5466;DHT22;2755;50.728;7.108;2023-03-20T15:36:30;12.90;21.90
5466;DHT22;2755;50.728;7.108;2023-03-20T15:41:50;13.00;23.50
5466;DHT22;2755;50.728;7.108;2023-03-20T15:44:26;13.10;25.80
5466;DHT22;2755;50.728;7.108;2023-03-20T15:47:06;13.00;23.50
5466;DHT22;2755;50.728;7.108;2023-03-20T15:49:38;12.90;25.60
5466;DHT22;2755;50.728;7.108;2023-03-20T15:52:32;13.00;23.10
5466;DHT22;2755;50.728;7.108;2023-03-20T15:55:04;13.10;24.00
5466;DHT22;2755;50.728;7.108;2023-03-20T15:57:36;12.70;24.50
5466;DHT22;2755;50.728;7.108;2023-03-20T16:00:14;12.30;24.90
5466;DHT22;2755;50.728;7.108;2023-03-20T16:02:41;13.20;23.60
5466;DHT22;2755;50.728;7.108;2023-03-20T16:05:12;13.40;22.10
5466;DHT22;2755;50.728;7.108;2023-03-20T16:07:38;13.00;24.80
5466;DHT22;2755;50.728;7.108;2023-03-20T16:12:46;13.70;25.40
5466;DHT22;2755;50.728;7.108;2023-03-20T16:15:15;12.90;24.60
5466;DHT22;2755;50.728;7.108;2023-03-20T16:17:41;13.60;23.90
5466;DHT22;2755;50.728;7.108;2023-03-20T16:20:14;13.50;24.10
5466;DHT22;2755;50.728;7.108;2023-03-20T16:22:41;13.70;23.00
5466;DHT22;2755;50.728;7.108;2023-03-20T16:25:12;13.30;24.10
5466;DHT22;2755;50.728;7.108;2023-03-20T16:27:39;13.40;22.70
5466;DHT22;2755;50.728;7.108;2023-03-20T16:30:18;13.20;24.80
5466;DHT22;2755;50.728;7.108;2023-03-20T16:32:46;13.00;21.90
5466;DHT22;2755;50.728;7.108;2023-03-20T16:35:20;13.10;22.50
5466;DHT22;2755;50.728;7.108;2023-03-20T16:37:55;13.00;21.60
5466;DHT22;2755;50.728;7.108;2023-03-20T16:43:01;11.70;23.60
5466;DHT22;2755;50.728;7.108;2023-03-20T16:45:30;12.70;25.30
5466;DHT22;2755;50.728;7.108;2023-03-20T16:48:21;12.60;23.60
5466;DHT22;2755;50.728;7.108;2023-03-20T16:50:55;12.50;22.60
5466;DHT22;2755;50.728;7.108;2023-03-20T16:53:21;12.40;24.10
5466;DHT22;2755;50.728;7.108;2023-03-20T16:55:50;12.40;26.50
5466;DHT22;2755;50.728;7.108;2023-03-20T16:58:36;12.20;24.00
5466;DHT22;2755;50.728;7.108;2023-03-20T17:01:07;12.30;27.00
5466;DHT22;2755;50.728;7.108;2023-03-20T17:03:51;11.80;25.30
5466;DHT22;2755;50.728;7.108;2023-03-20T17:08:50;11.20;28.00
5466;DHT22;2755;50.728;7.108;2023-03-20T17:11:33;11.90;26.20
5466;DHT22;2755;50.728;7.108;2023-03-20T17:14:00;11.70;26.20
5466;DHT22;2755;50.728;7.108;2023-03-20T17:16:25;11.80;27.70
5466;DHT22;2755;50.728;7.108;2023-03-20T17:18:59;11.50;26.80
5466;DHT22;2755;50.728;7.108;2023-03-20T17:23:51;11.40;29.90
5466;DHT22;2755;50.728;7.108;2023-03-20T17:31:13;11.70;30.80
5466;DHT22;2755;50.728;7.108;2023-03-20T17:33:40;11.70;28.60
5466;DHT22;2755;50.728;7.108;2023-03-20T17:36:18;11.50;28.70
5466;DHT22;2755;50.728;7.108;2023-03-20T17:38:45;11.80;31.60
5466;DHT22;2755;50.728;7.108;2023-03-20T17:41:15;11.40;29.30
5466;DHT22;2755;50.728;7.108;2023-03-20T17:43:43;11.10;30.30
5466;DHT22;2755;50.728;7.108;2023-03-20T17:46:30;11.40;28.90
5466;DHT22;2755;50.728;7.108;2023-03-20T17:49:09;11.30;29.20
5466;DHT22;2755;50.728;7.108;2023-03-20T17:51:36;11.30;33.10
5466;DHT22;2755;50.728;7.108;2023-03-20T17:56:28;11.20;31.30
5466;DHT22;2755;50.728;7.108;2023-03-20T17:59:00;11.20;34.40
5466;DHT22;2755;50.728;7.108;2023-03-20T18:01:27;11.30;31.20
5466;DHT22;2755;50.728;7.108;2023-03-20T18:03:53;10.40;35.10
5466;DHT22;2755;50.728;7.108;2023-03-20T18:06:25;11.60;33.80
5466;DHT22;2755;50.728;7.108;2023-03-20T18:08:54;10.70;32.50
5466;DHT22;2755;50.728;7.108;2023-03-20T18:11:20;11.20;35.40
5466;DHT22;2755;50.728;7.108;2023-03-20T18:13:46;10.50;33.10
5466;DHT22;2755;50.728;7.108;2023-03-20T18:16:21;11.00;32.80
5466;DHT22;2755;50.728;7.108;2023-03-20T18:18:46;11.10;34.30
5466;DHT22;2755;50.728;7.108;2023-03-20T18:21:13;10.50;37.10
5466;DHT22;2755;50.728;7.108;2023-03-20T18:23:44;11.00;35.00
5466;DHT22;2755;50.728;7.108;2023-03-20T18:28:45;10.90;35.20
5466;DHT22;2755;50.728;7.108;2023-03-20T18:33:47;10.90;39.20
5466;DHT22;2755;50.728;7.108;2023-03-20T18:36:15;10.70;36.40
5466;DHT22;2755;50.728;7.108;2023-03-20T18:38:41;10.90;38.10
5466;DHT22;2755;50.728;7.108;2023-03-20T18:43:33;11.30;38.90
5466;DHT22;2755;50.728;7.108;2023-03-20T18:48:24;10.60;38.00
5466;DHT22;2755;50.728;7.108;2023-03-20T18:50:50;11.00;39.20
5466;DHT22;2755;50.728;7.108;2023-03-20T18:53:17;10.90;41.80
5466;DHT22;2755;50.728;7.108;2023-03-20T18:55:42;10.90;40.20
5466;DHT22;2755;50.728;7.108;2023-03-20T18:58:20;10.90;39.50
5466;DHT22;2755;50.728;7.108;2023-03-20T19:00:46;10.80;38.80
5466;DHT22;2755;50.728;7.108;2023-03-20T19:05:38;11.60;40.00
5466;DHT22;2755;50.728;7.108;2023-03-20T19:08:04;10.80;38.40
5466;DHT22;2755;50.728;7.108;2023-03-20T19:10:37;11.00;42.50
5466;DHT22;2755;50.728;7.108;2023-03-20T19:13:05;10.70;38.40
5466;DHT22;2755;50.728;7.108;2023-03-20T19:15:33;10.90;40.00
5466;DHT22;2755;50.728;7.108;2023-03-20T19:18:01;10.80;42.30
5466;DHT22;2755;50.728;7.108;2023-03-20T19:20:41;10.10;39.40
5466;DHT22;2755;50.728;7.108;2023-03-20T19:23:12;10.50;39.60
5466;DHT22;2755;50.728;7.108;2023-03-20T19:25:39;10.70;42.50
5466;DHT22;2755;50.728;7.108;2023-03-20T19:28:06;11.30;42.40
5466;DHT22;2755;50.728;7.108;2023-03-20T19:30:37;11.10;42.90
5466;DHT22;2755;50.728;7.108;2023-03-20T19:33:04;10.70;39.50
5466;DHT22;2755;50.728;7.108;2023-03-20T19:35:32;11.40;40.30
5466;DHT22;2755;50.728;7.108;2023-03-20T19:42:59;10.70;39.00
5466;DHT22;2755;50.728;7.108;2023-03-20T19:45:30;10.50;42.70
5466;DHT22;2755;50.728;7.108;2023-03-20T19:47:56;10.50;41.50
5466;DHT22;2755;50.728;7.108;2023-03-20T20:00:10;10.60;39.90
5466;DHT22;2755;50.728;7.108;2023-03-20T20:02:37;10.50;41.10
5466;DHT22;2755;50.728;7.108;2023-03-20T20:05:03;10.30;43.70
5466;DHT22;2755;50.728;7.108;2023-03-20T20:07:28;10.70;41.50
5466;DHT22;2755;50.728;7.108;2023-03-20T20:09:54;10.70;41.70
5466;DHT22;2755;50.728;7.108;2023-03-20T20:12:19;10.50;44.20
5466;DHT22;2755;50.728;7.108;2023-03-20T20:17:11;10.20;41.70
5466;DHT22;2755;50.728;7.108;2023-03-20T20:26:55;10.50;42.80
5466;DHT22;2755;50.728;7.108;2023-03-20T20:29:21;10.40;42.70
5466;DHT22;2755;50.728;7.108;2023-03-20T20:31:48;10.30;45.10
5466;DHT22;2755;50.728;7.108;2023-03-20T20:34:14;10.40;44.90
5466;DHT22;2755;50.728;7.108;2023-03-20T20:36:40;10.20;45.40
5466;DHT22;2755;50.728;7.108;2023-03-20T20:41:32;10.50;48.90
5466;DHT22;2755;50.728;7.108;2023-03-20T20:46:23;11.00;47.30
5466;DHT22;2755;50.728;7.108;2023-03-20T20:51:17;10.30;49.60
5466;DHT22;2755;50.728;7.108;2023-03-20T20:53:43;10.10;46.00